Time;durP1;ratioP1;P1;durP2;ratioP2;P2;SDS_P1;SDS_P2;PMS_P1;PMS_P2;Temp;Humidity;BMP_temperature;BMP_pressure;BME280_temperature;BME280_humidity;BME280_pressure;Samples;Min_cycle;Max_cycle;Signal;HPM_P1;HPM_P2
2022/09/26 05:34:29;;;;;;;22.13;15.55;;;;;;;10.60;100.00;97386.77;1827946;78;20872;-58
2022/09/26 05:36:58;;;;;;;25.45;14.87;;;;;;;10.65;100.00;97379.95;1833458;77;21204;-59
2022/09/26 05:42:11;;;;;;;31.62;16.45;;;;;;;10.85;100.00;97386.70;1785606;80;21394;-57
2022/09/26 05:44:38;;;;;;;59.90;29.45;;;;;;;11.00;100.00;97391.12;1755021;81;20998;-56
2022/09/26 05:47:07;;;;;;;31.65;19.82;;;;;;;11.14;100.00;97382.22;1773665;80;21565;-57
2022/09/26 05:49:36;;;;;;;17.23;11.22;;;;;;;11.27;100.00;97377.30;1771512;80;21139;-57
2022/09/26 05:52:09;;;;;;;18.67;11.85;;;;;;;11.40;100.00;97378.53;1804151;79;21012;-59
2022/09/26 05:54:35;;;;;;;13.75;9.90;;;;;;;11.55;100.00;97373.31;1787985;79;20984;-59
2022/09/26 05:57:04;;;;;;;16.60;11.05;;;;;;;11.69;100.00;97367.31;1792954;79;20927;-59
2022/09/26 05:59:45;;;;;;;13.15;9.68;;;;;;;11.85;100.00;97365.76;1787466;78;21134;-59
2022/09/26 06:02:16;;;;;;;10.88;8.50;;;;;;;12.03;100.00;97362.02;1787510;79;21240;-59
2022/09/26 06:04:49;;;;;;;9.70;7.85;;;;;;;12.19;100.00;97360.45;1782623;78;21009;-59
2022/09/26 06:07:26;;;;;;;15.88;7.78;;;;;;;12.31;100.00;97356.59;1732918;80;21129;-59
2022/09/26 06:09:53;;;;;;;10.82;7.58;;;;;;;12.43;100.00;97355.95;1777920;80;21121;-61
2022/09/26 06:12:27;;;;;;;21.57;11.93;;;;;;;12.49;100.00;97364.07;1786931;79;20998;-60
2022/09/26 06:15:10;;;;;;;12.20;8.65;;;;;;;12.51;100.00;97361.05;1751868;79;21222;-63
2022/09/26 06:17:41;;;;;;;16.57;9.00;;;;;;;12.57;100.00;97359.80;1760641;78;21080;-58
2022/09/26 06:20:12;;;;;;;11.88;8.95;;;;;;;12.66;100.00;97365.41;1793275;79;20918;-60
2022/09/26 06:22:40;;;;;;;17.25;10.23;;;;;;;12.73;100.00;97367.05;1789762;79;21149;-61
2022/09/26 06:25:10;;;;;;;13.00;9.85;;;;;;;12.79;100.00;97359.59;1773908;79;21300;-60
2022/09/26 06:27:46;;;;;;;9.78;7.80;;;;;;;12.80;100.00;97359.84;1785932;79;21236;-57
2022/09/26 06:30:16;;;;;;;8.58;7.00;;;;;;;12.85;100.00;97365.05;1788737;78;21548;-57
2022/09/26 06:32:45;;;;;;;9.05;6.28;;;;;;;12.88;100.00;97357.70;1791478;78;21042;-58
2022/09/26 06:35:23;;;;;;;7.10;5.42;;;;;;;12.92;100.00;97362.13;1661513;85;21181;-56
2022/09/26 06:38:04;;;;;;;5.62;5.00;;;;;;;12.95;100.00;97358.01;1815475;78;20990;-61
2022/09/26 06:40:36;;;;;;;6.25;5.65;;;;;;;13.01;100.00;97362.09;1787113;80;21184;-57
2022/09/26 06:43:03;;;;;;;6.80;5.72;;;;;;;13.04;100.00;97364.94;1811271;77;21010;-58
2022/09/26 06:45:48;;;;;;;10.88;6.05;;;;;;;13.11;100.00;97371.19;1825174;78;21038;-60
2022/09/26 06:48:18;;;;;;;5.65;5.00;;;;;;;13.15;100.00;97381.53;1820949;78;21022;-56
2022/09/26 06:51:00;;;;;;;5.53;4.87;;;;;;;13.17;100.00;97371.23;1787048;79;21022;-56
2022/09/26 06:53:30;;;;;;;7.00;5.00;;;;;;;13.19;100.00;97371.70;1761435;80;21116;-56
2022/09/26 06:56:01;;;;;;;6.17;5.50;;;;;;;13.23;100.00;97369.17;1762810;80;21369;-56
2022/09/26 06:58:29;;;;;;;8.43;4.83;;;;;;;13.28;100.00;97367.11;1735241;80;21007;-56
2022/09/26 07:01:03;;;;;;;9.23;6.20;;;;;;;13.27;100.00;97366.86;1773082;80;21110;-57
2022/09/26 07:03:46;;;;;;;11.30;8.48;;;;;;;13.29;100.00;97376.73;1781332;80;21054;-59
2022/09/26 07:06:31;;;;;;;12.85;8.60;;;;;;;13.37;100.00;97375.93;1780866;80;23583;-58
2022/09/26 07:08:58;;;;;;;10.65;8.68;;;;;;;13.49;100.00;97367.97;1785546;80;20892;-58
2022/09/26 07:11:45;;;;;;;7.30;6.10;;;;;;;13.58;100.00;97369.27;1783645;80;20958;-59
2022/09/26 07:14:09;;;;;;;11.05;6.03;;;;;;;13.66;100.00;97364.37;1781123;80;21012;-55
2022/09/26 07:16:37;;;;;;;7.95;6.08;;;;;;;13.73;100.00;97364.11;1783763;80;20997;-55
2022/09/26 07:19:20;;;;;;;9.23;5.95;;;;;;;13.78;99.55;97368.52;1784176;80;21271;-55
2022/09/26 07:21:58;;;;;;;6.20;3.90;;;;;;;13.83;98.85;97363.50;1778439;79;21030;-54
2022/09/26 07:24:33;;;;;;;5.42;4.17;;;;;;;13.87;97.53;97361.20;1770763;79;20967;-57
2022/09/26 07:27:04;;;;;;;5.20;4.65;;;;;;;13.88;97.02;97356.03;1771362;80;21541;-56
2022/09/26 07:29:46;;;;;;;6.83;4.22;;;;;;;13.93;96.70;97354.50;1763525;80;21091;-56
2022/09/26 07:32:23;;;;;;;6.12;5.03;;;;;;;13.98;95.21;97353.52;1740008;81;20980;-57
2022/09/26 07:34:52;;;;;;;4.17;3.77;;;;;;;13.98;93.73;97352.17;1765475;79;20948;-59
2022/09/26 07:37:18;;;;;;;4.33;3.55;;;;;;;13.99;92.05;97356.45;1742019;80;21480;-57
2022/09/26 07:39:48;;;;;;;5.22;4.20;;;;;;;13.99;90.44;97348.37;1744999;81;21115;-54
2022/09/26 07:42:18;;;;;;;8.78;4.30;;;;;;;14.00;90.18;97350.73;1758751;80;21023;-56
2022/09/26 07:44:50;;;;;;;9.18;5.80;;;;;;;14.07;90.16;97348.30;1763678;81;21198;-58
2022/09/26 07:50:12;;;;;;;6.85;5.03;;;;;;;14.26;89.12;97341.11;1754774;81;21400;-57
2022/09/26 07:52:58;;;;;;;4.97;3.98;;;;;;;14.37;89.05;97346.36;1739603;80;20955;-57
2022/09/26 07:55:26;;;;;;;5.55;4.45;;;;;;;14.48;88.87;97343.50;1757620;80;21124;-58
2022/09/26 07:58:12;;;;;;;7.65;4.40;;;;;;;14.56;88.12;97339.13;1748484;81;21132;-58
2022/09/26 08:00:57;;;;;;;10.55;4.87;;;;;;;14.60;87.30;97335.45;1762123;81;21126;-57
2022/09/26 08:03:28;;;;;;;5.22;4.70;;;;;;;14.63;87.55;97333.44;1758842;81;21076;-59
2022/09/26 08:06:00;;;;;;;6.53;5.03;;;;;;;14.70;87.74;97337.73;1764362;81;21019;-57
2022/09/26 08:08:29;;;;;;;6.50;4.72;;;;;;;14.81;87.80;97330.83;1771049;80;21394;-58
2022/09/26 08:10:59;;;;;;;5.80;4.85;;;;;;;14.93;86.64;97330.83;1786564;80;22984;-58
2022/09/26 08:13:47;;;;;;;10.90;5.17;;;;;;;15.00;86.95;97329.72;1847390;77;21505;-59
2022/09/26 08:16:24;;;;;;;7.50;5.50;;;;;;;15.16;87.40;97331.78;1828342;77;21463;-61
2022/09/26 08:18:57;;;;;;;9.83;6.37;;;;;;;15.35;86.84;97329.33;1800740;77;21027;-60
2022/09/26 08:21:26;;;;;;;7.85;5.97;;;;;;;15.49;86.06;97327.13;1826743;78;20967;-61
2022/09/26 08:23:55;;;;;;;9.73;5.55;;;;;;;15.59;85.68;97329.38;1814908;78;21198;-59
2022/09/26 08:26:31;;;;;;;8.30;4.60;;;;;;;15.65;84.64;97330.71;1814542;78;21041;-62
2022/09/26 08:29:10;;;;;;;8.40;5.28;;;;;;;15.64;83.71;97325.87;1819961;77;21470;-59
2022/09/26 08:31:41;;;;;;;6.30;5.10;;;;;;;15.66;82.78;97324.20;1817394;77;20996;-59
2022/09/26 08:34:11;;;;;;;9.45;5.90;;;;;;;15.66;82.09;97318.80;1774109;80;20906;-57
2022/09/26 08:36:38;;;;;;;9.45;5.78;;;;;;;15.62;82.23;97320.58;1783680;80;21271;-58
2022/09/26 08:39:04;;;;;;;10.30;5.65;;;;;;;15.67;82.29;97328.45;1782027;78;20943;-57
2022/09/26 08:42:33;;;;;;;10.00;5.85;;;;;;;15.74;81.99;97323.27;1779250;80;20832;-56
2022/09/26 08:48:42;;;;;;;8.95;4.92;;;;;;;15.94;81.50;97312.12;1786319;80;21434;-56
2022/09/26 08:51:27;;;;;;;8.70;5.83;;;;;;;16.02;81.32;97299.82;1776901;80;21212;-57
2022/09/26 08:54:05;;;;;;;11.38;5.40;;;;;;;16.02;81.32;97299.82;1775683;80;20979;-57
2022/09/26 08:56:36;;;;;;;6.60;5.22;;;;;;;16.02;80.08;97297.68;1777580;80;21077;-55
2022/09/26 08:59:05;;;;;;;9.78;5.22;;;;;;;16.00;79.78;97296.68;1772656;80;21018;-55
2022/09/26 09:01:38;;;;;;;9.18;5.40;;;;;;;16.05;79.90;97299.15;1772751;80;21102;-55
2022/09/26 09:04:35;;;;;;;7.47;4.92;;;;;;;16.04;79.16;97292.75;1770593;81;21103;-56
2022/09/26 09:07:12;;;;;;;8.83;4.55;;;;;;;15.98;78.58;97290.84;1760906;80;20982;-55
2022/09/26 09:09:42;;;;;;;8.05;4.62;;;;;;;15.91;79.08;97297.38;1794299;79;21061;-56
2022/09/26 09:12:47;;;;;;;6.20;4.62;;;;;;;15.90;79.13;97297.14;1770566;80;20940;-56
2022/09/26 09:15:53;;;;;;;7.70;4.83;;;;;;;15.96;79.38;97301.76;1793942;79;20962;-57
2022/09/26 09:18:46;;;;;;;5.95;4.70;;;;;;;16.05;79.32;97289.70;1783968;80;21236;-56
2022/09/26 09:21:58;;;;;;;7.65;6.00;;;;;;;16.08;78.54;97284.17;1782029;80;20897;-56
2022/09/26 09:24:56;;;;;;;11.68;5.67;;;;;;;16.08;79.15;97281.47;1784104;80;20971;-54
2022/09/26 09:27:55;;;;;;;7.90;4.90;;;;;;;16.16;78.31;97273.22;1770934;80;21542;-55
2022/09/26 09:30:43;;;;;;;5.92;4.35;;;;;;;16.26;77.70;97268.69;1776905;80;21101;-56
2022/09/26 09:33:37;;;;;;;5.00;4.30;;;;;;;16.35;77.58;97267.17;1751066;79;21793;-57
2022/09/26 09:36:20;;;;;;;7.80;4.12;;;;;;;16.46;77.40;97264.78;1792205;79;21032;-56
2022/09/26 09:39:16;;;;;;;7.83;4.25;;;;;;;16.57;75.70;97267.22;1779468;79;20885;-59
2022/09/26 09:41:49;;;;;;;7.67;4.08;;;;;;;16.63;74.18;97265.86;1744759;80;20955;-58
2022/09/26 09:44:53;;;;;;;11.83;4.55;;;;;;;16.62;73.38;97260.22;1750458;79;21046;-66
2022/09/26 09:47:19;;;;;;;6.20;4.40;;;;;;;16.61;73.01;97262.13;1778397;79;21263;-57
2022/09/26 09:49:47;;;;;;;6.97;4.65;;;;;;;16.61;73.23;97264.83;1744999;80;21059;-57
2022/09/26 09:52:43;;;;;;;5.62;4.50;;;;;;;16.66;73.77;97263.79;1774628;80;20980;-57
2022/09/26 09:55:18;;;;;;;9.33;4.80;;;;;;;16.73;73.86;97260.71;1775800;80;21385;-57
2022/09/26 09:58:29;;;;;;;6.85;4.30;;;;;;;16.87;73.91;97257.58;1769906;79;21014;-55
2022/09/26 10:01:27;;;;;;;5.28;3.95;;;;;;;16.96;73.25;97264.95;1754886;80;21220;-55
2022/09/26 10:04:25;;;;;;;4.90;3.52;;;;;;;16.95;72.23;97264.19;1819238;79;20925;-58
2022/09/26 10:06:52;;;;;;;6.92;4.20;;;;;;;16.91;71.99;97267.35;1798937;79;20907;-56
2022/09/26 10:09:25;;;;;;;5.50;4.20;;;;;;;16.95;72.56;97263.39;1753542;79;21006;-56
2022/09/26 10:12:19;;;;;;;8.03;3.92;;;;;;;16.97;71.81;97265.97;1774583;80;21029;-61
2022/09/26 10:15:01;;;;;;;8.88;4.58;;;;;;;16.99;71.98;97265.61;1633451;86;21221;-56
2022/09/26 10:17:39;;;;;;;6.83;4.03;;;;;;;17.01;71.67;97262.78;1756130;80;21035;-64
2022/09/26 10:20:34;;;;;;;5.58;4.08;;;;;;;17.00;71.62;97258.49;1766333;81;21128;-55
2022/09/26 10:23:05;;;;;;;4.95;3.83;;;;;;;17.01;71.66;97261.43;1770158;81;21109;-56
2022/09/26 10:25:30;;;;;;;4.50;4.00;;;;;;;16.96;71.05;97256.28;1749311;81;20990;-56
2022/09/26 10:28:00;;;;;;;7.30;4.60;;;;;;;16.90;70.48;97250.13;1745366;81;21066;-56
2022/09/26 10:30:31;;;;;;;6.67;4.45;;;;;;;16.81;70.80;97250.87;1728259;81;21546;-56
2022/09/26 10:33:05;;;;;;;8.28;4.75;;;;;;;16.78;71.48;97247.50;1732765;80;20962;-56
2022/09/26 10:35:41;;;;;;;5.28;3.80;;;;;;;16.79;71.59;97240.97;1757131;80;21020;-55
2022/09/26 10:38:26;;;;;;;4.80;3.62;;;;;;;16.78;71.33;97237.47;1737613;82;26720;-59
2022/09/26 10:41:00;;;;;;;4.53;3.55;;;;;;;16.79;71.51;97234.20;1782873;79;21071;-57
2022/09/26 10:43:36;;;;;;;7.42;4.03;;;;;;;16.79;70.74;97234.20;1755497;81;20918;-58
2022/09/26 10:46:14;;;;;;;12.10;5.78;;;;;;;16.80;70.88;97233.06;1747328;81;21110;-57
2022/09/26 10:49:01;;;;;;;10.20;5.65;;;;;;;16.86;71.01;97226.27;1759697;81;21458;-56
2022/09/26 10:51:41;;;;;;;9.95;6.42;;;;;;;16.90;71.04;97224.44;1734349;81;21524;-60
2022/09/26 10:54:15;;;;;;;8.83;5.20;;;;;;;16.89;71.10;97224.20;1757619;81;21195;-55
2022/09/26 10:56:46;;;;;;;7.97;4.50;;;;;;;16.86;70.94;97222.22;1762162;81;21515;-54
2022/09/26 10:59:15;;;;;;;8.33;4.58;;;;;;;16.84;70.66;97224.48;1724213;81;20937;-57
2022/09/26 11:01:48;;;;;;;7.62;4.62;;;;;;;16.79;70.71;97222.04;1736460;80;20930;-56
2022/09/26 11:07:28;;;;;;;6.40;3.87;;;;;;;16.79;70.39;97217.98;1774556;80;21339;-56
2022/09/26 11:10:04;;;;;;;4.83;3.40;;;;;;;16.77;70.40;97221.02;1807820;79;21542;-56
2022/09/26 11:12:38;;;;;;;4.85;3.40;;;;;;;16.74;68.92;97225.00;1804845;79;21045;-55
2022/09/26 11:15:10;;;;;;;4.67;3.60;;;;;;;16.68;68.53;97220.41;1812700;77;21509;-58
2022/09/26 11:17:51;;;;;;;7.03;4.17;;;;;;;16.63;68.52;97219.89;1814736;77;20926;-55
2022/09/26 11:20:35;;;;;;;5.28;3.72;;;;;;;16.58;69.28;97213.39;1811153;78;22137;-57
2022/09/26 11:23:23;;;;;;;11.22;5.85;;;;;;;16.53;69.74;97232.56;1816618;77;21510;-57
2022/09/26 11:26:07;;;;;;;9.05;5.45;;;;;;;16.44;69.17;97230.76;1811811;77;21076;-57
2022/09/26 11:28:43;;;;;;;6.60;4.60;;;;;;;16.32;69.97;97232.17;1813755;77;20998;-57
2022/09/26 11:31:27;;;;;;;9.83;4.55;;;;;;;16.24;70.33;97216.91;1772738;80;21090;-55
2022/09/26 11:34:18;;;;;;;5.55;4.95;;;;;;;16.21;70.99;97218.15;1775153;80;21296;-56
2022/09/26 11:37:06;;;;;;;7.28;4.65;;;;;;;16.18;71.72;97222.33;1766510;78;21174;-55
2022/09/26 11:40:13;;;;;;;5.42;4.67;;;;;;;16.19;72.28;97223.12;1750392;80;21106;-58
2022/09/26 11:42:54;;;;;;;9.53;5.92;;;;;;;16.18;73.42;97221.56;1755129;81;21115;-56
2022/09/26 11:45:39;;;;;;;6.58;5.65;;;;;;;16.15;74.00;97224.39;1764960;80;21061;-55
2022/09/26 11:48:40;;;;;;;7.25;5.70;;;;;;;16.11;74.53;97215.38;1761246;80;21793;-58
2022/09/26 11:52:13;;;;;;;10.25;5.78;;;;;;;16.05;74.73;97216.77;1721764;80;21025;-57
2022/09/26 11:55:13;;;;;;;8.68;6.10;;;;;;;15.99;75.76;97222.77;1655678;86;20952;-54
2022/09/26 11:58:13;;;;;;;9.33;5.85;;;;;;;15.92;77.36;97218.51;1635151;86;21075;-56
2022/09/26 12:01:13;;;;;;;7.97;6.37;;;;;;;15.88;77.99;97214.34;1811455;78;21496;-56
2022/09/26 12:04:18;;;;;;;7.78;6.15;;;;;;;15.85;79.13;97215.61;1827265;77;21248;-62
2022/09/26 12:07:03;;;;;;;14.23;8.85;;;;;;;15.88;79.73;97208.15;1805748;78;21073;-59
2022/09/26 12:10:07;;;;;;;15.68;11.48;;;;;;;15.89;80.33;97207.03;1710869;78;20999;-59
2022/09/26 12:12:43;;;;;;;24.05;17.37;;;;;;;15.90;80.96;97207.27;1794957;77;20962;-63
2022/09/26 12:18:37;;;;;;;13.10;10.18;;;;;;;15.81;82.25;97208.73;1689774;84;21132;-61
2022/09/26 12:21:16;;;;;;;16.67;13.58;;;;;;;15.77;83.27;97209.77;1690358;85;20986;-61
2022/09/26 12:23:49;;;;;;;21.65;17.85;;;;;;;15.71;83.74;97207.86;1692777;84;21459;-58
2022/09/26 12:26:43;;;;;;;21.90;16.73;;;;;;;15.66;84.36;97200.79;1691476;84;20978;-63
2022/09/26 12:29:36;;;;;;;20.15;16.12;;;;;;;15.66;85.37;97210.83;1688969;83;22544;-57
2022/09/26 12:32:36;;;;;;;18.82;14.87;;;;;;;15.62;86.12;97205.30;1677809;83;21128;-56
2022/09/26 12:35:21;;;;;;;9.70;7.90;;;;;;;15.58;86.82;97195.53;1693596;83;20995;-59
2022/09/26 12:38:02;;;;;;;11.70;7.62;;;;;;;15.51;87.82;97189.37;1662192;86;21034;-58
2022/09/26 12:41:09;;;;;;;10.88;8.63;;;;;;;15.45;88.83;97196.70;1688882;84;21039;-58
2022/09/26 12:44:19;;;;;;;16.17;9.85;;;;;;;15.40;89.76;97199.59;1657056;85;21563;-62
2022/09/26 12:47:21;;;;;;;25.40;18.67;;;;;;;15.39;90.49;97192.62;1689411;84;21249;-58
2022/09/26 12:50:15;;;;;;;33.53;26.85;;;;;;;15.33;91.26;97199.38;1669725;85;21079;-59
2022/09/26 12:53:00;;;;;;;36.95;32.48;;;;;;;15.28;91.76;97193.66;1680763;85;21529;-60
2022/09/26 12:55:57;;;;;;;22.22;18.02;;;;;;;15.21;92.00;97192.65;1682049;85;21157;-59
2022/09/26 12:58:51;;;;;;;25.68;14.15;;;;;;;15.17;91.97;97189.06;1680825;85;21115;-59
2022/09/26 13:02:00;;;;;;;12.35;10.90;;;;;;;15.11;91.85;97192.54;1681116;85;21224;-58
2022/09/26 13:05:04;;;;;;;15.72;10.95;;;;;;;15.05;92.26;97196.02;1684878;83;21135;-59
2022/09/26 13:07:52;;;;;;;12.50;9.00;;;;;;;14.96;92.54;97183.77;1681540;83;21011;-59
2022/09/26 13:10:27;;;;;;;22.87;12.68;;;;;;;14.89;92.75;97187.59;1684542;85;21516;-59
2022/09/26 13:13:44;;;;;;;14.85;9.50;;;;;;;14.84;93.15;97183.20;1685406;85;21437;-61
2022/09/26 13:16:26;;;;;;;25.20;15.88;;;;;;;14.78;93.07;97176.48;1685151;83;21508;-58
2022/09/26 13:19:11;;;;;;;24.55;14.38;;;;;;;14.74;93.62;97180.19;1682179;85;21043;-58
2022/09/26 13:21:43;;;;;;;21.20;12.88;;;;;;;14.71;93.87;97184.34;1681846;85;20933;-59
2022/09/26 13:24:18;;;;;;;18.10;12.30;;;;;;;14.65;94.37;97186.25;1679028;85;20946;-59
2022/09/26 13:26:53;;;;;;;15.60;10.28;;;;;;;14.61;94.82;97183.97;1671026;85;21070;-58
2022/09/26 13:29:32;;;;;;;16.10;10.55;;;;;;;14.57;95.28;97183.88;1677153;85;21759;-59
2022/09/26 13:32:22;;;;;;;12.45;8.33;;;;;;;14.55;96.01;97173.99;1676818;85;21042;-58
2022/09/26 13:34:53;;;;;;;11.38;8.10;;;;;;;14.54;96.50;97171.61;1680293;84;21503;-61
2022/09/26 13:37:53;;;;;;;12.43;8.90;;;;;;;14.53;96.49;97180.25;1675975;83;21098;-58
2022/09/26 13:40:34;;;;;;;11.88;8.00;;;;;;;14.52;96.76;97175.20;1677860;85;21018;-59
2022/09/26 13:43:28;;;;;;;12.50;7.58;;;;;;;14.52;97.32;97161.18;1677672;84;22021;-57
2022/09/26 13:46:26;;;;;;;11.85;8.60;;;;;;;14.53;98.04;97169.47;1688879;83;20959;-57
2022/09/26 13:49:28;;;;;;;11.45;8.78;;;;;;;14.52;98.72;97162.53;1672738;85;20971;-58
2022/09/26 13:52:36;;;;;;;12.07;9.78;;;;;;;14.55;99.16;97163.22;1681907;85;21018;-58
2022/09/26 13:55:18;;;;;;;11.75;9.10;;;;;;;14.58;99.04;97169.26;1681606;85;21086;-58
2022/09/26 13:57:53;;;;;;;12.95;8.78;;;;;;;14.58;98.96;97165.22;1654605;86;22019;-59
2022/09/26 14:00:39;;;;;;;15.38;9.80;;;;;;;14.56;98.56;97163.98;1667262;85;21072;-59
2022/09/26 14:03:17;;;;;;;15.23;9.78;;;;;;;14.56;98.57;97162.08;1672921;85;21095;-58
2022/09/26 14:05:48;;;;;;;16.75;10.58;;;;;;;14.55;98.47;97163.22;1675583;85;21004;-58
2022/09/26 14:11:34;;;;;;;16.32;10.80;;;;;;;14.56;98.14;97153.20;1664318;85;21803;-59
2022/09/26 14:14:22;;;;;;;14.38;11.10;;;;;;;14.54;98.05;97146.81;1653924;86;21602;-58
2022/09/26 14:16:53;;;;;;;21.50;14.15;;;;;;;14.52;98.12;97143.67;1654916;86;20997;-59
2022/09/26 14:19:40;;;;;;;25.10;17.92;;;;;;;14.52;98.19;97151.75;1655250;86;20992;-58
2022/09/26 14:22:30;;;;;;;26.55;20.27;;;;;;;14.50;98.15;97143.22;1671925;85;20909;-59
2022/09/26 14:24:57;;;;;;;22.93;15.43;;;;;;;14.45;98.16;97136.70;1674650;85;21635;-58
2022/09/26 14:27:36;;;;;;;19.77;13.40;;;;;;;14.44;98.04;97148.58;1674511;85;20968;-58
2022/09/26 14:30:28;;;;;;;18.37;13.47;;;;;;;14.39;97.91;97159.02;1674847;85;20992;-58
2022/09/26 14:33:02;;;;;;;17.80;12.73;;;;;;;14.35;98.27;97154.63;1674406;85;21005;-58
2022/09/26 14:35:32;;;;;;;17.65;12.43;;;;;;;14.33;98.35;97143.41;1674915;85;20968;-58
2022/09/26 14:38:01;;;;;;;17.70;11.22;;;;;;;14.30;98.35;97141.38;1657308;85;21738;-59
2022/09/26 14:40:34;;;;;;;15.50;10.45;;;;;;;14.27;98.54;97147.42;1674486;85;20921;-58
2022/09/26 14:43:15;;;;;;;14.18;11.00;;;;;;;14.25;98.78;97149.64;1657134;85;20921;-58
